Flight Track Log - Related Links

Times and Time Zones

All times are in EDT time to prevent confusion due to time zone crossing. See the UAL4604 flight status page for this flight to view local times or setup timezone preferences in your user account.

Time Position Orientation Groundspeed Altitude Reporting Facility
EDT Latitude Longitude Course Direction KTS MPH feet Rate Location/Type
Mon 03:33:05 PM 29.9636 -95.3408 190° South 176 203 700  Level Houston Center
Mon 03:33:42 PM 29.9400 -95.3125 134° Southeast 214 246 2,000 2,020 Climbing Houston Center
Mon 03:34:43 PM 29.8967 -95.2525 130° Southeast 251 289 4,000 1,277 Climbing Houston Center
Mon 03:35:16 PM 29.8792 -95.2286 130° Southeast 237 273 4,000 269 Level Houston Center
Mon 03:35:50 PM 29.8400 -95.1847 136° Southeast 261 300 4,300 387 Climbing Houston Center
Mon 03:36:18 PM 29.8242 -95.1744 151° Southeast 264 304 4,400 1,967 Climbing Houston Center
Mon 03:36:51 PM 29.7731 -95.1425 152° Southeast 274 315 6,300 3,097 Climbing Houston Center
Mon 03:37:20 PM 29.7436 -95.1244 152° Southeast 273 314 7,600 2,656 Climbing Houston Center
Mon 03:37:52 PM 29.7064 -95.1025 153° Southeast 281 323 9,000 2,419 Climbing Houston Center
Mon 03:38:00 PM 29.4009 -95.4498 190° South  Level FlightAware Approximate
Mon 03:38:22 PM 29.6708 -95.0811 152° Southeast 287 330 10,100  Level Houston Center
Mon 03:39:24 PM 29.5842 -95.1042 193° South 324 373 11,500 1,161 Climbing Houston Center
Mon 03:40:26 PM 29.4919 -95.1594 208° Southwest 361 415 12,500 1,306 Climbing Houston Center
Mon 03:41:28 PM 29.3992 -95.2164 208° Southwest 373 429 14,200 1,500 Climbing Houston Center
Mon 03:42:30 PM 29.3183 -95.2881 218° Southwest 368 423 15,600 1,344 Climbing Houston Center
Mon 03:43:33 PM 29.2375 -95.3669 220° Southwest 376 433 17,000 1,344 Climbing Houston Center
Mon 03:44:35 PM 29.1569 -95.4447 220° Southwest 378 435 18,400 1,488 Climbing Houston Center
Mon 03:45:38 PM 29.0597 -95.5406 221° Southwest 383 441 20,100 1,452 Climbing Houston Center
Mon 03:46:39 PM 28.9756 -95.6219 220° Southwest 394 453 21,400 1,073 Climbing Houston Center
Mon 03:47:41 PM 28.8889 -95.7050 220° Southwest 404 465 22,300 919 Climbing Houston Center
Mon 03:48:43 PM 28.8003 -95.7908 220° Southwest 415 478 23,300 919 Climbing Houston Center
Mon 03:49:45 PM 28.7094 -95.8783 220° Southwest 423 487 24,200 919 Climbing Houston Center
Mon 03:50:47 PM 28.6117 -95.9719 220° Southwest 426 490 25,200 1,584 Climbing Houston Center
Mon 03:51:50 PM 28.5239 -96.0561 220° Southwest 416 479 27,500 1,344 Climbing Houston Center
Mon 03:52:52 PM 28.4406 -96.1356 220° Southwest 396 456 28,000 242 Climbing Houston Center
Mon 03:53:54 PM 28.3506 -96.2219 220° Southwest 418 481 28,000  Level Houston Center
Mon 03:54:56 PM 28.2397 -96.3253 219° Southwest 428 493 28,000  Level Houston Center
Mon 03:55:58 PM 28.1475 -96.4133 220° Southwest 431 496 28,000  Level Houston Center
Mon 03:57:00 PM 28.0544 -96.5017 220° Southwest 435 501 28,000  Level Houston Center
Mon 03:58:02 PM 27.9622 -96.5897 220° Southwest 433 498 28,000  Level Houston Center
Mon 03:59:05 PM 27.8694 -96.6775 220° Southwest 435 501 28,000  Level Houston Center
Mon 04:00:07 PM 27.7769 -96.7631 219° Southwest 431 496 28,000 -48 Level Houston Center
Mon 04:01:09 PM 27.6669 -96.8675 220° Southwest 431 496 27,900 -532 Descending Houston Center
Mon 04:02:11 PM 27.5739 -96.9547 220° Southwest 433 498 26,900 -1,016 Descending Houston Center
Mon 04:03:13 PM 27.4786 -97.0428 219° Southwest 439 505 25,800 -1,500 Descending Houston Center
Mon 04:04:15 PM 27.3797 -97.1347 220° Southwest 438 504 23,800 -1,935 Descending Houston Center
Mon 04:05:17 PM 27.2894 -97.2175 219° Southwest 424 488 21,800 -1,935 Descending Houston Center
Mon 04:06:19 PM 27.1986 -97.3019 220° Southwest 423 487 19,800 -2,064 Descending Houston Center
Mon 04:07:22 PM 27.0989 -97.3950 220° Southwest 413 475 17,500 -1,938 Descending Houston Center
Mon 04:07:55 PM 27.0494 -97.4414 220° Southwest 406 467 16,700 -1,258 Descending Houston Center
Mon 04:08:24 PM 27.0133 -97.4756 220° Southwest 403 464 16,200 -462 Descending Houston Center
Mon 04:09:26 PM 26.9217 -97.5572 218° Southwest 400 460 16,000 -1,023 Descending Houston Center
Mon 04:10:33 PM 26.8344 -97.6514 224° Southwest 367 422 14,000 -1,887 Descending Houston Center
Mon 04:11:30 PM 26.7736 -97.7269 228° Southwest 344 396 12,100 -1,815 Descending Houston Center
Mon 04:12:32 PM 26.7067 -97.8000 224° Southwest 315 362 10,400 -1,694 Descending Houston Center
Mon 04:13:34 PM 26.6522 -97.8614 225° Southwest 288 331 8,600 -1,790 Descending Houston Center
Mon 04:14:36 PM 26.5947 -97.9269 226° Southwest 269 310 6,700 -1,707 Descending Houston Center
Mon 04:15:37 PM 26.5439 -97.9828 225° Southwest 262 302 5,100 -1,296 Descending Houston Center
Mon 04:16:41 PM 26.4944 -98.0383 225° Southwest 256 295 4,000 -569 Descending Houston Center
Mon 04:17:33 PM 26.4481 -98.0911 226° Southwest 254 292 4,000 -202 Level Houston Center
Mon 04:18:40 PM 26.3933 -98.1519 225° Southwest 259 298 3,600 -938 Descending Houston Center
Mon 04:19:41 PM 26.3408 -98.2125 226° Southwest 255 293 2,000 -1,574 Descending Houston Center

Login

Don't have an account? Register now (free) for customized features, flight alerts, and more!